Creek Data

    Home     View Charts     View Raw Data     Messages

ID Distance Battery Voltage Battery Current Internal Temp Internal Humidity External Temp Solar Input rssi snr Time Stamp Record
36386 0.0 4.03 0 55 39 54 5.1 -84 8 03/30/2025 10:15 AM 18238
36385 0.0 4.11 0 54 39 54 5.1 -84 8 03/30/2025 10:00 AM 18237
36384 0.0 4.06 26 53 40 53 4.5 -82 7 03/30/2025 09:45 AM 18236
36383 0.0 4.04 19 52 40 53 4.5 -80 8 03/30/2025 09:30 AM 18235
36382 0.0 4.04 19 52 40 52 4.5 -86 8 03/30/2025 09:15 AM 18234
36381 0.0 4.05 24 52 40 53 4.5 -86 7 03/30/2025 09:00 AM 18233
36380 15.2 4.03 12 52 39 52 4.5 -94 7 03/30/2025 08:45 AM 18232
36379 0.0 4.04 20 52 39 53 4.5 -79 7 03/30/2025 08:30 AM 18231
36378 0.0 4.04 0 51 39 52 4.5 -77 9 03/30/2025 08:15 AM 18230
36377 0.0 4.04 -7 50 39 51 4.5 -84 7 03/30/2025 08:00 AM 18229
36376 0.0 4.01 0 49 40 50 4.5 -85 8 03/30/2025 07:46 AM 18228
36375 0.0 3.94 -7 49 40 50 4.5 -79 8 03/30/2025 07:30 AM 18227
36374 0.0 3.93 -32 48 40 49 4.4 -80 8 03/30/2025 07:15 AM 18226
36373 0.0 3.94 -5 48 40 49 1.7 -77 8 03/30/2025 07:00 AM 18225
36372 0.0 4.00 -5 48 40 49 0.4 -78 8 03/30/2025 06:45 AM 18224
36371 0.0 3.94 -5 48 40 49 0 -77 8 03/30/2025 06:30 AM 18223
36370 0.0 3.94 -5 48 40 49 0 -80 7 03/30/2025 06:15 AM 18222
36369 0.0 4.01 -5 48 40 49 0 -77 8 03/30/2025 06:00 AM 18221
36368 0.0 3.95 -5 48 40 49 0.1 -77 8 03/30/2025 05:45 AM 18220
36367 0.0 4.01 -5 48 40 48 0 -77 8 03/30/2025 05:30 AM 18219
36366 15.0 3.95 -5 48 40 48 0 -78 8 03/30/2025 05:15 AM 18218
36365 15.0 3.95 -5 47 40 48 0 -79 8 03/30/2025 05:00 AM 18217
36364 15.0 4.01 -5 47 40 48 0 -79 8 03/30/2025 04:45 AM 18216
36363 15.1 3.95 -5 47 40 48 0 -80 6 03/30/2025 04:30 AM 18215
36362 0.0 4.01 -5 47 40 48 0 -80 8 03/30/2025 04:15 AM 18214